Time;durP1;ratioP1;P1;durP2;ratioP2;P2;SDS_P1;SDS_P2;PMS_P1;PMS_P2;Temp;Humidity;BMP_temperature;BMP_pressure;BME280_temperature;BME280_humidity;BME280_pressure;Samples;Min_cycle;Max_cycle;Signal;HPM_P1;HPM_P2
2024/01/26 00:00:44;;;;;;;53.00;28.08;;;9.00;99.90;;;;;;5093835;28;20047;-62
2024/01/26 00:03:10;;;;;;;48.47;27.17;;;9.00;99.90;;;;;;5093730;28;20134;-62
2024/01/26 00:05:35;;;;;;;50.13;27.75;;;9.00;99.90;;;;;;5093904;28;20067;-61
2024/01/26 00:08:01;;;;;;;47.60;27.58;;;9.00;99.90;;;;;;5077575;28;20042;-61
2024/01/26 00:10:27;;;;;;;49.70;26.25;;;9.10;99.90;;;;;;5073408;28;20047;-62
2024/01/26 00:12:52;;;;;;;51.95;26.02;;;9.20;99.90;;;;;;5073543;28;20483;-61
2024/01/26 00:15:18;;;;;;;48.30;25.65;;;9.10;99.90;;;;;;5073248;28;20048;-62
2024/01/26 00:17:43;;;;;;;46.45;25.67;;;9.20;99.90;;;;;;5073287;28;20498;-62
2024/01/26 00:20:09;;;;;;;45.72;25.95;;;9.10;99.90;;;;;;5071696;28;20052;-62
2024/01/26 00:22:35;;;;;;;42.03;24.33;;;9.10;99.90;;;;;;5073043;28;20506;-62
2024/01/26 00:25:01;;;;;;;42.30;24.65;;;9.10;99.90;;;;;;5071994;28;20036;-61
2024/01/26 00:27:26;;;;;;;45.75;25.58;;;9.10;99.90;;;;;;5073210;28;20502;-62
2024/01/26 00:29:52;;;;;;;39.72;23.65;;;9.10;99.90;;;;;;5072961;28;20574;-62
2024/01/26 00:32:18;;;;;;;36.90;23.75;;;9.20;99.90;;;;;;5071688;28;20045;-62
2024/01/26 00:34:43;;;;;;;39.45;23.23;;;9.10;99.90;;;;;;5092724;28;20040;-61
2024/01/26 00:37:09;;;;;;;39.50;22.25;;;9.20;99.90;;;;;;5092039;28;20043;-61
2024/01/26 00:39:35;;;;;;;40.38;23.13;;;9.20;99.90;;;;;;5091771;28;20036;-62
2024/01/26 00:42:01;;;;;;;39.00;23.23;;;9.20;99.90;;;;;;5093200;28;20036;-61
2024/01/26 00:44:27;;;;;;;39.70;24.15;;;9.20;99.90;;;;;;5093261;28;20048;-61
2024/01/26 00:46:52;;;;;;;35.20;23.20;;;9.20;99.90;;;;;;5092961;28;20394;-62
2024/01/26 00:49:18;;;;;;;38.08;24.10;;;9.20;99.90;;;;;;5091865;28;20059;-61
2024/01/26 00:51:44;;;;;;;38.17;23.02;;;9.30;99.90;;;;;;5091748;28;20075;-61
2024/01/26 00:54:09;;;;;;;38.40;24.90;;;9.30;99.90;;;;;;5091790;28;20089;-62
2024/01/26 00:56:35;;;;;;;37.47;24.00;;;9.20;99.90;;;;;;5092677;28;20036;-61
2024/01/26 00:59:01;;;;;;;36.72;24.05;;;9.30;99.90;;;;;;5091539;28;20036;-62
2024/01/26 01:01:26;;;;;;;38.42;24.15;;;9.30;99.90;;;;;;5083618;28;20399;-62
2024/01/26 01:03:52;;;;;;;38.42;24.85;;;9.30;99.90;;;;;;5072330;28;20033;-61
2024/01/26 01:06:17;;;;;;;36.92;23.88;;;9.30;99.90;;;;;;5087818;28;20465;-61
2024/01/26 01:08:44;;;;;;;36.88;24.33;;;9.30;99.90;;;;;;5074008;28;20134;-61
2024/01/26 01:11:09;;;;;;;39.03;24.48;;;9.30;99.90;;;;;;5092542;28;20479;-62
2024/01/26 01:13:35;;;;;;;38.35;25.70;;;9.30;99.90;;;;;;5091038;28;20051;-62
2024/01/26 01:16:01;;;;;;;38.42;25.33;;;9.30;99.90;;;;;;5092533;28;20032;-62
2024/01/26 01:18:26;;;;;;;36.88;23.55;;;9.30;99.90;;;;;;5091243;28;20067;-62
2024/01/26 01:20:52;;;;;;;35.58;24.58;;;9.30;99.90;;;;;;5090896;28;20043;-61
2024/01/26 01:23:18;;;;;;;36.63;23.80;;;9.40;99.90;;;;;;5091055;28;20443;-61
2024/01/26 01:25:43;;;;;;;32.33;22.88;;;9.30;99.90;;;;;;5090861;28;20399;-61
2024/01/26 01:28:09;;;;;;;31.90;22.75;;;9.30;99.90;;;;;;5092440;28;20399;-62
2024/01/26 01:30:35;;;;;;;36.40;23.25;;;9.30;99.90;;;;;;5090422;28;20383;-62
2024/01/26 01:33:00;;;;;;;33.83;22.38;;;9.30;99.90;;;;;;5091214;28;20048;-62
2024/01/26 01:35:26;;;;;;;32.78;21.58;;;9.30;99.90;;;;;;5090994;28;20127;-62
2024/01/26 01:37:52;;;;;;;32.65;22.23;;;9.40;99.90;;;;;;5081377;28;20132;-62
2024/01/26 01:40:17;;;;;;;31.20;21.67;;;9.40;99.90;;;;;;5071813;28;20071;-61
2024/01/26 01:42:43;;;;;;;30.60;21.67;;;9.40;99.90;;;;;;5070153;28;20473;-62
2024/01/26 01:45:15;;;;;;;29.23;20.70;;;9.40;99.90;;;;;;5071600;28;20532;-62
2024/01/26 01:47:44;;;;;;;27.50;20.08;;;9.30;99.90;;;;;;5071629;28;20043;-62
2024/01/26 01:50:10;;;;;;;24.88;18.60;;;9.30;99.90;;;;;;5070266;28;20040;-62
2024/01/26 01:52:47;;;;;;;27.27;19.35;;;9.30;99.90;;;;;;5071532;28;20036;-62
2024/01/26 01:55:14;;;;;;;23.08;17.70;;;9.30;99.90;;;;;;5071504;28;20086;-61
2024/01/26 01:57:42;;;;;;;25.35;18.33;;;9.40;99.90;;;;;;5070430;28;20476;-61
2024/01/26 02:00:15;;;;;;;22.85;17.77;;;9.30;99.90;;;;;;5071543;28;20442;-62
2024/01/26 02:02:48;;;;;;;21.73;17.63;;;9.30;99.90;;;;;;5071623;28;20127;-61
2024/01/26 02:05:15;;;;;;;24.02;17.55;;;9.40;99.90;;;;;;5070981;28;20036;-61
2024/01/26 02:07:41;;;;;;;23.80;18.27;;;9.40;99.90;;;;;;5071330;28;20123;-62
2024/01/26 02:10:07;;;;;;;23.02;18.52;;;9.40;99.90;;;;;;5069430;28;20136;-62
2024/01/26 02:12:34;;;;;;;24.02;17.50;;;9.40;99.90;;;;;;5070115;28;20044;-61
2024/01/26 02:15:00;;;;;;;21.90;17.58;;;9.40;99.90;;;;;;5052849;28;20056;-62
2024/01/26 02:17:33;;;;;;;20.88;16.75;;;9.40;99.90;;;;;;5070138;28;20050;-61
2024/01/26 02:19:59;;;;;;;21.50;17.08;;;9.40;99.90;;;;;;5070866;28;20047;-61
2024/01/26 02:22:26;;;;;;;21.08;17.17;;;9.40;99.90;;;;;;5071194;28;20110;-62
2024/01/26 02:24:51;;;;;;;19.90;16.85;;;9.40;99.90;;;;;;5070802;28;20502;-61
2024/01/26 02:27:18;;;;;;;21.08;16.65;;;9.50;99.90;;;;;;5071115;28;20044;-62
2024/01/26 02:29:44;;;;;;;20.02;16.67;;;9.40;99.90;;;;;;5070925;28;20449;-62
2024/01/26 02:32:10;;;;;;;19.58;15.60;;;9.40;99.90;;;;;;5069331;28;20048;-62
2024/01/26 02:34:37;;;;;;;19.85;16.13;;;9.50;99.90;;;;;;5071340;28;20040;-62
2024/01/26 02:37:02;;;;;;;19.48;16.55;;;9.40;99.90;;;;;;5069470;28;20051;-62
2024/01/26 02:39:28;;;;;;;21.05;16.15;;;9.40;99.90;;;;;;5084382;28;20052;-62
2024/01/26 02:41:55;;;;;;;19.58;16.05;;;9.50;99.90;;;;;;5089759;28;20028;-62
2024/01/26 02:44:22;;;;;;;19.33;16.27;;;9.50;99.90;;;;;;5072962;28;20056;-62
2024/01/26 02:46:48;;;;;;;18.10;15.13;;;9.50;99.90;;;;;;5089735;28;20079;-62
2024/01/26 02:49:14;;;;;;;18.42;15.63;;;9.50;99.90;;;;;;5089237;28;20093;-62
2024/01/26 02:51:40;;;;;;;18.60;15.77;;;9.50;99.90;;;;;;5090005;28;20495;-62
2024/01/26 02:54:05;;;;;;;18.73;15.82;;;9.40;99.90;;;;;;5090641;28;20040;-61
2024/01/26 02:56:31;;;;;;;18.17;16.00;;;9.50;99.90;;;;;;5089534;28;20174;-62
2024/01/26 02:58:56;;;;;;;18.23;15.30;;;9.50;99.90;;;;;;5090538;28;20036;-61
2024/01/26 03:01:22;;;;;;;19.25;15.30;;;9.50;99.90;;;;;;5090787;28;20429;-62
2024/01/26 03:03:48;;;;;;;19.67;15.40;;;9.50;99.90;;;;;;5090774;28;20407;-62
2024/01/26 03:06:13;;;;;;;17.80;15.60;;;9.50;99.90;;;;;;5089144;28;20129;-61
2024/01/26 03:08:39;;;;;;;16.05;14.35;;;9.50;99.90;;;;;;5090587;28;20093;-61
2024/01/26 03:11:06;;;;;;;19.00;16.90;;;9.50;99.90;;;;;;5072298;28;20557;-62
2024/01/26 03:13:31;;;;;;;19.10;15.27;;;9.50;99.90;;;;;;5090650;28;20067;-61
2024/01/26 03:15:57;;;;;;;18.58;15.75;;;9.50;99.90;;;;;;5089319;28;20090;-62
2024/01/26 03:18:23;;;;;;;19.92;15.50;;;9.50;99.90;;;;;;5091516;28;20122;-63
2024/01/26 03:20:48;;;;;;;18.38;15.60;;;9.50;99.90;;;;;;5094633;28;20032;-61
2024/01/26 03:23:14;;;;;;;23.42;15.93;;;9.50;99.90;;;;;;5093111;28;20078;-61
2024/01/26 03:25:40;;;;;;;18.73;16.52;;;9.60;99.90;;;;;;5094853;28;20769;-61
2024/01/26 03:28:06;;;;;;;21.33;15.32;;;9.50;99.90;;;;;;5094470;28;20115;-62
2024/01/26 03:30:33;;;;;;;17.85;15.57;;;9.50;99.90;;;;;;5092886;28;20083;-61
2024/01/26 03:32:59;;;;;;;20.10;15.32;;;9.50;99.90;;;;;;5076344;28;20039;-61
2024/01/26 03:35:26;;;;;;;18.35;14.70;;;9.60;99.90;;;;;;5081463;28;20483;-61
2024/01/26 03:37:52;;;;;;;19.05;15.07;;;9.50;99.90;;;;;;5089135;28;20797;-62
2024/01/26 03:40:17;;;;;;;19.60;14.52;;;9.50;99.90;;;;;;5094316;28;20059;-62
2024/01/26 03:42:44;;;;;;;20.55;15.50;;;9.50;99.90;;;;;;5094448;28;20483;-62
2024/01/26 03:45:09;;;;;;;20.98;15.98;;;9.60;99.90;;;;;;5093342;28;20559;-62
2024/01/26 03:47:35;;;;;;;18.52;14.55;;;9.60;99.90;;;;;;5094171;28;20039;-62
2024/01/26 03:50:01;;;;;;;18.95;15.07;;;9.70;99.90;;;;;;5094156;28;20044;-62
2024/01/26 03:52:27;;;;;;;18.90;15.70;;;9.60;99.90;;;;;;5092502;28;20437;-62
2024/01/26 03:54:53;;;;;;;20.90;15.10;;;9.70;99.90;;;;;;5092792;28;20046;-62
2024/01/26 03:57:19;;;;;;;17.67;14.15;;;9.70;99.90;;;;;;5093873;28;20081;-62
2024/01/26 03:59:45;;;;;;;19.58;15.13;;;9.70;99.90;;;;;;5092651;28;20454;-62
2024/01/26 04:02:10;;;;;;;17.45;13.98;;;9.70;99.90;;;;;;5092574;28;20032;-61
2024/01/26 04:04:36;;;;;;;18.58;13.88;;;9.80;99.90;;;;;;5093927;28;20463;-62
2024/01/26 04:07:02;;;;;;;17.90;13.52;;;9.80;99.90;;;;;;5093786;28;20079;-62
2024/01/26 04:09:28;;;;;;;17.45;13.23;;;9.80;99.90;;;;;;5092273;28;20539;-62
2024/01/26 04:11:54;;;;;;;18.35;13.20;;;9.80;99.90;;;;;;5093947;28;20063;-62
2024/01/26 04:14:19;;;;;;;14.85;13.25;;;9.90;99.90;;;;;;5093589;28;20128;-61
2024/01/26 04:16:45;;;;;;;18.58;13.50;;;9.90;99.90;;;;;;5091994;28;20040;-61
2024/01/26 04:19:11;;;;;;;16.38;13.13;;;9.90;99.90;;;;;;5093846;28;20035;-62
2024/01/26 04:21:36;;;;;;;17.75;13.90;;;9.90;99.90;;;;;;5093193;28;20463;-62
2024/01/26 04:24:02;;;;;;;18.13;13.30;;;9.90;99.90;;;;;;5093707;28;20035;-62
2024/01/26 04:26:28;;;;;;;18.40;13.75;;;10.00;99.90;;;;;;5091938;28;20122;-62
2024/01/26 04:28:53;;;;;;;18.08;13.73;;;9.90;99.90;;;;;;5093332;28;20032;-62
2024/01/26 04:31:22;;;;;;;18.83;14.55;;;9.90;99.90;;;;;;5091717;28;20102;-61
2024/01/26 04:33:48;;;;;;;17.23;14.23;;;9.90;99.90;;;;;;5089191;28;20029;-61
2024/01/26 04:36:14;;;;;;;18.67;14.35;;;10.00;99.90;;;;;;5073200;28;20086;-62
2024/01/26 04:38:39;;;;;;;17.10;14.48;;;10.00;99.90;;;;;;5072922;28;20037;-62
2024/01/26 04:41:05;;;;;;;18.52;15.57;;;10.00;99.90;;;;;;5071723;28;20032;-61
2024/01/26 04:43:30;;;;;;;18.08;15.48;;;10.00;99.90;;;;;;5072818;28;20044;-61
2024/01/26 04:45:56;;;;;;;20.15;15.55;;;10.00;99.90;;;;;;5071655;28;20041;-62
2024/01/26 04:48:22;;;;;;;20.67;15.93;;;10.10;99.90;;;;;;5072712;28;20044;-62
2024/01/26 04:50:47;;;;;;;21.65;16.27;;;10.00;99.90;;;;;;5072611;28;20089;-62
2024/01/26 04:53:15;;;;;;;20.65;16.73;;;10.10;99.90;;;;;;5072806;28;20037;-61
2024/01/26 04:55:41;;;;;;;22.20;16.50;;;10.10;99.90;;;;;;5073995;28;20041;-62
2024/01/26 04:58:07;;;;;;;20.55;16.08;;;10.10;99.90;;;;;;5093053;28;20028;-62
2024/01/26 05:00:32;;;;;;;21.80;16.10;;;10.10;99.90;;;;;;5092613;28;20119;-61
2024/01/26 05:02:58;;;;;;;21.38;16.35;;;10.10;99.90;;;;;;5092761;28;20601;-62
2024/01/26 05:05:24;;;;;;;20.63;16.35;;;10.20;99.90;;;;;;5091002;28;20490;-62
2024/01/26 05:07:50;;;;;;;18.38;16.38;;;10.20;99.90;;;;;;5072264;28;20059;-61
2024/01/26 05:10:15;;;;;;;18.65;16.65;;;10.20;99.90;;;;;;5071185;28;20126;-62
2024/01/26 05:12:41;;;;;;;20.90;16.23;;;10.20;99.90;;;;;;5091157;28;20047;-61
2024/01/26 05:15:11;;;;;;;18.35;15.90;;;10.20;99.90;;;;;;5091289;28;20472;-62
2024/01/26 05:17:37;;;;;;;17.73;15.70;;;10.20;99.90;;;;;;5074152;28;20043;-62
2024/01/26 05:20:07;;;;;;;17.60;15.55;;;10.20;99.90;;;;;;5092434;28;20032;-62
2024/01/26 05:22:32;;;;;;;17.90;15.32;;;10.20;99.90;;;;;;5090918;28;20048;-62
2024/01/26 05:24:58;;;;;;;17.85;15.75;;;10.30;99.90;;;;;;5091058;28;20093;-62
2024/01/26 05:27:24;;;;;;;18.42;15.60;;;10.30;99.90;;;;;;5091067;28;20039;-62
2024/01/26 05:29:49;;;;;;;19.70;15.77;;;10.40;99.90;;;;;;5091834;28;20048;-62
2024/01/26 05:32:15;;;;;;;19.05;15.63;;;10.30;99.90;;;;;;5092421;28;20096;-61
2024/01/26 05:34:41;;;;;;;18.40;15.45;;;10.30;99.90;;;;;;5090779;28;20395;-61
2024/01/26 05:37:06;;;;;;;19.13;16.13;;;10.30;99.90;;;;;;5092301;28;20032;-61
2024/01/26 05:39:32;;;;;;;19.98;16.42;;;10.30;99.90;;;;;;5090630;28;20414;-62
2024/01/26 05:41:58;;;;;;;17.60;15.73;;;10.30;99.90;;;;;;5091588;28;20036;-62
2024/01/26 05:44:24;;;;;;;19.88;16.15;;;10.30;99.90;;;;;;5092055;28;20040;-61
2024/01/26 05:46:50;;;;;;;19.60;16.58;;;10.40;99.90;;;;;;5090320;28;20121;-61
2024/01/26 05:49:15;;;;;;;19.85;16.17;;;10.30;99.90;;;;;;5091905;28;20399;-61
2024/01/26 05:51:41;;;;;;;18.48;16.30;;;10.30;99.90;;;;;;5091759;28;20051;-61
2024/01/26 05:54:07;;;;;;;19.08;16.02;;;10.40;99.90;;;;;;5091956;28;20028;-61
2024/01/26 05:56:32;;;;;;;21.92;17.20;;;10.40;99.90;;;;;;5090381;28;20391;-62
2024/01/26 05:58:58;;;;;;;20.20;16.63;;;10.30;99.90;;;;;;5091415;28;20032;-61
2024/01/26 06:01:23;;;;;;;21.02;16.35;;;10.40;99.90;;;;;;5085203;28;20119;-62
2024/01/26 06:03:49;;;;;;;17.92;15.10;;;10.40;99.90;;;;;;5069337;28;20056;-61
2024/01/26 06:06:15;;;;;;;18.30;15.43;;;10.30;99.90;;;;;;5070250;28;20037;-61
2024/01/26 06:08:42;;;;;;;19.05;15.25;;;10.40;99.90;;;;;;5086907;28;20044;-61
2024/01/26 06:11:09;;;;;;;23.52;15.70;;;10.30;99.90;;;;;;5090258;28;20040;-62
2024/01/26 06:13:35;;;;;;;18.25;14.73;;;10.30;99.90;;;;;;5091880;28;20047;-61
2024/01/26 06:16:01;;;;;;;16.42;13.98;;;10.30;99.90;;;;;;5091577;28;20040;-61
2024/01/26 06:18:26;;;;;;;17.70;14.70;;;10.40;99.90;;;;;;5089993;28;20036;-62
2024/01/26 06:20:52;;;;;;;16.98;14.50;;;10.30;99.90;;;;;;5089650;28;20491;-62
2024/01/26 06:23:18;;;;;;;17.80;13.85;;;10.30;99.90;;;;;;5090154;28;20036;-62
2024/01/26 06:25:43;;;;;;;16.58;13.25;;;10.40;99.90;;;;;;5090989;28;20094;-62
2024/01/26 06:28:09;;;;;;;18.58;12.65;;;10.40;99.90;;;;;;5091218;28;20032;-62
2024/01/26 06:30:34;;;;;;;16.80;13.20;;;10.30;99.90;;;;;;5090960;28;20059;-62
2024/01/26 06:33:00;;;;;;;14.82;13.27;;;10.40;99.90;;;;;;5090871;28;20434;-62
2024/01/26 06:35:26;;;;;;;17.48;12.07;;;10.30;99.90;;;;;;5089886;28;20439;-61
2024/01/26 06:37:51;;;;;;;15.80;12.48;;;10.30;99.90;;;;;;5090785;28;20040;-62
2024/01/26 06:40:17;;;;;;;16.33;12.18;;;10.40;99.90;;;;;;5091210;28;20118;-62
2024/01/26 06:42:42;;;;;;;18.98;12.45;;;10.40;99.90;;;;;;5091121;28;20472;-62
2024/01/26 06:45:09;;;;;;;14.70;11.75;;;10.40;99.90;;;;;;5089395;28;20044;-62
2024/01/26 06:47:35;;;;;;;16.58;12.35;;;10.40;99.90;;;;;;5090842;28;20036;-62
2024/01/26 06:50:01;;;;;;;11.98;10.40;;;10.40;99.90;;;;;;5089253;28;20043;-62
2024/01/26 06:52:26;;;;;;;14.07;10.90;;;10.40;99.90;;;;;;5089521;28;20047;-61
2024/01/26 06:54:52;;;;;;;13.90;10.63;;;10.30;99.90;;;;;;5090645;28;20495;-62
2024/01/26 06:57:18;;;;;;;14.25;11.18;;;10.40;99.90;;;;;;5089605;28;20031;-62
2024/01/26 06:59:43;;;;;;;11.98;10.30;;;10.40;99.90;;;;;;5089507;28;20047;-62
2024/01/26 07:02:09;;;;;;;13.63;10.50;;;10.40;99.90;;;;;;5090383;28;20067;-62
2024/01/26 07:04:35;;;;;;;11.88;10.02;;;10.40;99.90;;;;;;5089683;28;20048;-62
2024/01/26 07:07:01;;;;;;;12.93;10.60;;;10.30;99.90;;;;;;5090441;28;20036;-62
2024/01/26 07:09:26;;;;;;;16.58;11.55;;;10.40;99.90;;;;;;5090704;28;20102;-62
2024/01/26 07:11:52;;;;;;;11.45;9.65;;;10.40;99.90;;;;;;5090843;28;20063;-62
2024/01/26 07:14:19;;;;;;;11.90;9.40;;;10.40;99.90;;;;;;5088806;28;20098;-61
2024/01/26 07:16:46;;;;;;;11.40;9.63;;;10.30;99.90;;;;;;5072733;28;20075;-62
2024/01/26 07:19:11;;;;;;;10.38;9.05;;;10.40;99.90;;;;;;5090758;28;20167;-62
2024/01/26 07:21:37;;;;;;;8.90;8.00;;;10.40;99.90;;;;;;5090805;28;20090;-62
2024/01/26 07:24:03;;;;;;;8.90;7.97;;;10.30;99.90;;;;;;5089167;28;20036;-62
2024/01/26 07:26:29;;;;;;;10.20;7.78;;;10.30;99.90;;;;;;5090376;28;20549;-61
2024/01/26 07:28:54;;;;;;;8.65;7.70;;;10.40;99.90;;;;;;5089151;28;20051;-61
2024/01/26 07:31:20;;;;;;;8.07;6.78;;;10.40;99.90;;;;;;5089947;28;20067;-62
2024/01/26 07:33:45;;;;;;;6.78;6.00;;;10.40;99.90;;;;;;5089352;28;20510;-62
2024/01/26 07:36:11;;;;;;;6.82;5.78;;;10.40;99.90;;;;;;5088911;28;20307;-62
2024/01/26 07:38:37;;;;;;;5.72;5.13;;;10.40;99.90;;;;;;5090568;28;20035;-62
2024/01/26 07:41:03;;;;;;;7.20;5.45;;;10.40;99.90;;;;;;5090287;28;20028;-62
2024/01/26 07:43:29;;;;;;;5.78;5.18;;;10.40;99.90;;;;;;5090368;28;20040;-61
2024/01/26 07:45:54;;;;;;;6.05;5.45;;;10.50;99.90;;;;;;5089133;28;20437;-62
2024/01/26 07:48:20;;;;;;;6.03;5.43;;;10.50;99.90;;;;;;5089035;28;20040;-62
2024/01/26 07:50:46;;;;;;;6.15;5.55;;;10.50;99.90;;;;;;5090186;28;20119;-61
2024/01/26 07:53:12;;;;;;;6.28;5.68;;;10.50;99.90;;;;;;5089982;28;20039;-62
2024/01/26 07:55:38;;;;;;;6.90;6.20;;;10.50;99.90;;;;;;5089112;28;20459;-62
2024/01/26 07:58:04;;;;;;;7.45;6.75;;;10.50;99.90;;;;;;5089013;28;20136;-62
2024/01/26 08:00:29;;;;;;;7.45;6.25;;;10.50;99.90;;;;;;5090159;28;20402;-61
2024/01/26 08:02:55;;;;;;;7.93;7.13;;;10.40;99.90;;;;;;5090406;28;20462;-62
2024/01/26 08:05:20;;;;;;;8.27;6.68;;;10.50;99.90;;;;;;5073587;28;20040;-62
2024/01/26 08:07:47;;;;;;;7.35;6.68;;;10.50;99.90;;;;;;5072321;28;20052;-62
2024/01/26 08:10:13;;;;;;;8.07;7.38;;;10.50;99.90;;;;;;5071947;28;20041;-62
2024/01/26 08:12:40;;;;;;;7.63;6.82;;;10.50;99.90;;;;;;5073675;28;20495;-62
2024/01/26 08:15:07;;;;;;;8.75;7.85;;;10.50;99.90;;;;;;5072112;28;20064;-61
2024/01/26 08:17:33;;;;;;;8.65;7.85;;;10.50;99.90;;;;;;5092508;28;20031;-61
2024/01/26 08:20:01;;;;;;;8.10;7.30;;;10.50;99.90;;;;;;5092378;28;20036;-61
2024/01/26 08:22:26;;;;;;;9.30;8.13;;;10.50;99.90;;;;;;5093646;28;20052;-62
2024/01/26 08:24:52;;;;;;;9.93;8.73;;;10.50;99.90;;;;;;5092306;28;20082;-62
2024/01/26 08:27:18;;;;;;;12.80;9.90;;;10.50;99.90;;;;;;5093373;28;20051;-62
2024/01/26 08:29:43;;;;;;;11.65;10.45;;;10.50;99.90;;;;;;5092215;28;20094;-62
2024/01/26 08:32:09;;;;;;;11.90;9.85;;;10.50;99.90;;;;;;5092345;28;20044;-61
2024/01/26 08:34:36;;;;;;;11.75;10.57;;;10.60;99.90;;;;;;5093534;28;20067;-61
2024/01/26 08:37:06;;;;;;;15.77;12.00;;;10.60;99.90;;;;;;5093369;28;20121;-61
2024/01/26 08:39:31;;;;;;;13.80;10.98;;;10.60;99.90;;;;;;5092167;28;20051;-62
2024/01/26 08:41:57;;;;;;;12.38;11.07;;;10.60;99.90;;;;;;5092275;28;20039;-61
2024/01/26 08:44:23;;;;;;;13.70;12.18;;;10.60;99.90;;;;;;5092837;28;20048;-62
2024/01/26 08:46:49;;;;;;;13.48;12.00;;;10.70;99.90;;;;;;5093378;28;20040;-61
2024/01/26 08:49:15;;;;;;;12.65;11.07;;;10.60;99.90;;;;;;5092951;28;20031;-62
2024/01/26 08:51:41;;;;;;;12.45;11.25;;;10.60;99.90;;;;;;5063338;28;20132;-62
2024/01/26 08:54:07;;;;;;;13.68;12.27;;;10.60;99.90;;;;;;5072850;28;20115;-61
2024/01/26 08:56:39;;;;;;;14.50;11.95;;;10.70;99.90;;;;;;5071237;28;20040;-62
2024/01/26 08:59:06;;;;;;;13.68;12.02;;;10.70;99.90;;;;;;5071558;28;20101;-61
2024/01/26 09:01:34;;;;;;;13.23;11.52;;;10.60;99.90;;;;;;5071121;28;20052;-62
2024/01/26 09:04:00;;;;;;;14.18;12.13;;;10.70;99.90;;;;;;5073009;28;20028;-62
2024/01/26 09:06:26;;;;;;;13.57;11.50;;;10.70;99.90;;;;;;5072567;28;20470;-62
2024/01/26 09:08:52;;;;;;;13.80;11.38;;;10.70;99.90;;;;;;5075811;28;20165;-61
2024/01/26 09:11:17;;;;;;;12.20;9.52;;;10.70;99.90;;;;;;5090807;28;20043;-63
2024/01/26 09:13:43;;;;;;;12.15;9.10;;;10.70;99.90;;;;;;5091044;28;20043;-62
2024/01/26 09:16:12;;;;;;;9.77;7.30;;;10.70;99.90;;;;;;5090206;28;20546;-62
2024/01/26 09:18:38;;;;;;;9.73;6.03;;;10.80;99.90;;;;;;5091072;28;20067;-62
2024/01/26 09:21:05;;;;;;;11.40;5.40;;;10.60;99.90;;;;;;5091467;28;20089;-62
2024/01/26 09:23:30;;;;;;;9.85;3.67;;;10.60;99.90;;;;;;5092341;28;20085;-62
2024/01/26 09:25:58;;;;;;;5.50;1.70;;;10.60;99.90;;;;;;5092312;28;20119;-63
2024/01/26 09:28:24;;;;;;;2.90;1.08;;;10.10;99.90;;;;;;5091055;28;20074;-62
2024/01/26 09:30:49;;;;;;;5.63;1.85;;;9.50;99.90;;;;;;5092096;28;20044;-62
2024/01/26 09:33:15;;;;;;;3.67;1.00;;;9.20;99.90;;;;;;5090940;28;20043;-62
2024/01/26 09:35:41;;;;;;;2.45;0.68;;;9.10;99.90;;;;;;5092165;28;20028;-62
2024/01/26 09:38:06;;;;;;;2.33;0.70;;;9.00;99.90;;;;;;5074353;28;20071;-62
2024/01/26 09:40:32;;;;;;;5.50;0.90;;;8.90;99.90;;;;;;5092077;28;20047;-62
2024/01/26 09:42:58;;;;;;;3.90;0.95;;;8.90;99.90;;;;;;5091275;28;20044;-62
2024/01/26 09:45:23;;;;;;;3.90;0.65;;;8.90;99.90;;;;;;5090718;28;20056;-62
2024/01/26 09:47:52;;;;;;;4.90;1.10;;;8.80;99.90;;;;;;5090434;28;20398;-62
2024/01/26 09:50:20;;;;;;;3.95;1.15;;;8.90;99.90;;;;;;5076631;28;20044;-62
2024/01/26 09:52:46;;;;;;;5.32;1.10;;;8.90;99.90;;;;;;5071444;28;20044;-62
2024/01/26 09:55:12;;;;;;;3.97;0.98;;;8.80;99.90;;;;;;5071620;28;20039;-62
2024/01/26 09:57:38;;;;;;;4.22;1.05;;;8.80;99.90;;;;;;5069552;28;20048;-62
2024/01/26 10:00:07;;;;;;;3.67;0.75;;;8.80;99.90;;;;;;5084559;28;20072;-61
2024/01/26 10:02:33;;;;;;;6.20;0.90;;;8.70;99.90;;;;;;5090302;28;20053;-62
2024/01/26 10:04:58;;;;;;;4.88;1.25;;;8.70;99.90;;;;;;5090762;28;20387;-62
2024/01/26 10:07:24;;;;;;;7.65;1.45;;;8.70;99.90;;;;;;5084489;28;20055;-62
2024/01/26 10:09:50;;;;;;;7.03;1.67;;;8.70;99.90;;;;;;5070847;28;20040;-62
2024/01/26 10:12:15;;;;;;;7.30;1.48;;;8.60;99.90;;;;;;5070063;28;20043;-62
2024/01/26 10:14:41;;;;;;;10.63;1.55;;;8.60;99.90;;;;;;5071149;28;20040;-62
2024/01/26 10:17:06;;;;;;;12.20;2.17;;;8.60;99.90;;;;;;5071156;28;20032;-62
2024/01/26 10:19:34;;;;;;;7.47;2.03;;;8.60;99.90;;;;;;5070266;28;20044;-62
2024/01/26 10:22:00;;;;;;;13.75;2.25;;;8.60;99.90;;;;;;5071003;28;20434;-62
2024/01/26 10:24:26;;;;;;;17.13;2.92;;;8.50;99.90;;;;;;5069696;28;20048;-62
2024/01/26 10:26:55;;;;;;;13.38;1.92;;;8.50;99.90;;;;;;5052583;28;20051;-62
2024/01/26 10:29:22;;;;;;;10.90;2.17;;;8.50;99.90;;;;;;5071122;28;20039;-62
2024/01/26 10:31:50;;;;;;;9.85;2.13;;;8.50;99.90;;;;;;5052679;28;20469;-62
2024/01/26 10:34:17;;;;;;;12.68;1.90;;;8.50;99.90;;;;;;5069646;28;20047;-62
2024/01/26 10:36:44;;;;;;;11.57;2.72;;;8.50;99.90;;;;;;5069437;28;20086;-62
2024/01/26 10:39:29;;;;;;;11.90;2.30;;;8.60;99.90;;;;;;5069640;28;20036;-62
2024/01/26 10:42:03;;;;;;;10.90;2.20;;;8.60;99.90;;;;;;5052161;28;20055;-62
2024/01/26 10:44:31;;;;;;;13.93;3.08;;;8.60;99.90;;;;;;5069886;28;20511;-62
2024/01/26 10:46:59;;;;;;;12.80;2.40;;;8.70;99.90;;;;;;5069270;28;20067;-62
2024/01/26 10:49:26;;;;;;;12.77;2.40;;;8.70;99.90;;;;;;5075223;28;20048;-62
2024/01/26 10:51:54;;;;;;;18.45;2.92;;;8.60;99.90;;;;;;5091054;28;20454;-62
2024/01/26 10:54:25;;;;;;;12.27;2.25;;;8.60;99.90;;;;;;5091004;28;20052;-62
2024/01/26 10:56:50;;;;;;;14.07;2.78;;;8.80;99.90;;;;;;5089346;28;20077;-62
2024/01/26 10:59:17;;;;;;;10.32;2.60;;;8.70;99.90;;;;;;5089567;28;20043;-62
2024/01/26 11:01:44;;;;;;;13.00;2.30;;;8.70;99.90;;;;;;5089789;28;20565;-62
2024/01/26 11:04:12;;;;;;;14.10;2.17;;;8.60;99.90;;;;;;5089518;28;20044;-62
2024/01/26 11:06:41;;;;;;;14.98;2.38;;;8.60;99.90;;;;;;5089563;28;20040;-62
2024/01/26 11:09:11;;;;;;;20.42;3.00;;;8.60;99.90;;;;;;5090777;28;20047;-61
2024/01/26 11:11:38;;;;;;;16.85;3.10;;;8.60;99.90;;;;;;5090825;28;20054;-61
2024/01/26 11:14:05;;;;;;;13.88;2.53;;;8.60;99.90;;;;;;5072823;28;20122;-61
2024/01/26 11:16:37;;;;;;;21.77;3.08;;;8.50;99.90;;;;;;5090683;28;20079;-62
2024/01/26 11:19:03;;;;;;;10.77;1.85;;;8.50;99.90;;;;;;5089237;28;20052;-61
2024/01/26 11:21:46;;;;;;;14.48;2.45;;;8.50;99.90;;;;;;5089327;28;20067;-62
2024/01/26 11:24:17;;;;;;;13.23;2.28;;;8.50;99.90;;;;;;5089140;28;20032;-62
2024/01/26 11:26:54;;;;;;;13.93;3.00;;;8.50;99.90;;;;;;5089584;28;20517;-62
2024/01/26 11:29:19;;;;;;;15.93;3.00;;;8.50;99.90;;;;;;5090539;28;20103;-62
2024/01/26 11:31:45;;;;;;;15.82;2.70;;;8.50;99.90;;;;;;5090314;28;20593;-62
2024/01/26 11:34:22;;;;;;;16.95;3.20;;;8.50;99.90;;;;;;5088967;28;20379;-62
2024/01/26 11:36:48;;;;;;;12.73;2.25;;;8.40;99.90;;;;;;5089109;28;20072;-61
2024/01/26 11:39:16;;;;;;;10.98;2.22;;;8.40;99.90;;;;;;5090970;28;20085;-62
2024/01/26 11:41:44;;;;;;;15.65;2.40;;;8.40;99.90;;;;;;5093200;28;20109;-62
2024/01/26 11:44:21;;;;;;;16.77;2.80;;;8.40;99.90;;;;;;5093179;28;20050;-62
2024/01/26 11:46:47;;;;;;;12.60;2.92;;;8.30;99.90;;;;;;5094492;28;20126;-62
2024/01/26 11:49:13;;;;;;;13.65;2.92;;;8.30;99.90;;;;;;5094090;28;20032;-62
2024/01/26 11:51:39;;;;;;;15.90;2.85;;;8.20;99.90;;;;;;5093080;28;20052;-62
2024/01/26 11:54:06;;;;;;;19.70;3.05;;;8.30;99.90;;;;;;5092354;28;20482;-62
2024/01/26 11:56:32;;;;;;;16.38;2.90;;;8.20;99.90;;;;;;5093191;28;20394;-62
2024/01/26 11:59:00;;;;;;;14.27;2.97;;;8.20;99.90;;;;;;5093062;28;20040;-62
2024/01/26 12:01:25;;;;;;;20.40;3.40;;;8.20;99.90;;;;;;5094120;28;20081;-62
2024/01/26 12:03:51;;;;;;;11.55;2.60;;;8.20;99.90;;;;;;5087039;28;20491;-62
2024/01/26 12:06:17;;;;;;;19.50;4.32;;;8.10;99.90;;;;;;5073563;28;20048;-62
2024/01/26 12:08:43;;;;;;;19.65;3.00;;;8.10;99.90;;;;;;5072320;28;20068;-62
2024/01/26 12:11:10;;;;;;;14.02;3.35;;;8.10;99.90;;;;;;5072137;28;20076;-62
2024/01/26 12:13:37;;;;;;;14.90;2.45;;;8.10;99.90;;;;;;5072288;28;20036;-62
2024/01/26 12:16:04;;;;;;;13.63;2.67;;;8.10;99.90;;;;;;5072249;28;20491;-62
2024/01/26 12:18:29;;;;;;;16.80;3.38;;;8.10;99.90;;;;;;5072294;28;20044;-62
2024/01/26 12:20:56;;;;;;;17.08;3.30;;;8.00;99.90;;;;;;5073442;28;20380;-62
2024/01/26 12:23:22;;;;;;;16.10;2.83;;;8.00;99.90;;;;;;5073073;28;20053;-62
2024/01/26 12:25:52;;;;;;;20.13;2.75;;;8.00;99.90;;;;;;5071586;28;20049;-62
2024/01/26 12:28:26;;;;;;;15.10;3.28;;;8.00;99.90;;;;;;5073516;28;20036;-62
2024/01/26 12:30:52;;;;;;;12.52;2.50;;;8.00;99.90;;;;;;5071763;28;20063;-62
2024/01/26 12:33:18;;;;;;;18.63;2.90;;;8.00;99.90;;;;;;5071640;28;20044;-62